NCAR-RAP Real-Time Weather Data

Output produced by METARs form (23 February 2020  02:18 UTC)
found at http://weather.rap.ucar.edu/surface/
 
KEVV 230154Z 20006KT 10SM CLR 05/M08 A3028 RMK AO2 SLP256 T00501078
KEVV 230054Z 20007KT 10SM CLR 06/M08 A3028 RMK AO2 SLP258 T00611083
KEVV 222354Z 20008KT 10SM CLR 07/M08 A3028 RMK AO2 SLP256 T00721083 10094 20056 56016
KEVV 222254Z 21009KT 10SM CLR 08/M07 A3028 RMK AO2 SLP259 T00831072
KEVV 222154Z 20011KT 10SM CLR 09/M08 A3030 RMK AO2 SLP264 T00941078
KEVV 222054Z 21012KT 10SM CLR 09/M07 A3032 RMK AO2 SLP271 T00941067 56033
KEVV 221954Z 20009KT 10SM CLR 08/M07 A3035 RMK AO2 SLP281 T00831072
KEVV 221854Z 21010KT 10SM CLR 07/M07 A3038 RMK AO2 SLP291 T00721067
KEVV 221754Z 21011KT 10SM CLR 06/M06 A3042 RMK AO2 SLP305 T00561061 10056 21072 58015
KEVV 221654Z 21007KT 10SM CLR 04/M07 A3045 RMK AO2 SLP316 T00391067
KEVV 221554Z 19007KT 10SM CLR 03/M06 A3047 RMK AO2 SLP322 T00281061
KEVV 221454Z 21006KT 10SM CLR 01/M06 A3047 RMK AO2 SLP321 T00061056 58001
KEVV 221354Z 00000KT 10SM CLR M02/M06 A3048 RMK AO2 SLP326 T10221061
KEVV 221254Z 00000KT 8SM CLR M07/M09 A3047 RMK AO2 SLP323 T10671094
KEVV 221154Z 00000KT 10SM CLR M06/M09 A3047 RMK AO2 SLP322 T10611094 11017 21067 50006
KEVV 221054Z AUTO 00000KT 10SM CLR M06/M09 A3047 RMK AO2 SLP323 T10611094
KEVV 220954Z AUTO 00000KT 10SM CLR M05/M09 A3046 RMK AO2 SLP318 T10501089
KEVV 220854Z AUTO 00000KT 10SM CLR M06/M09 A3045 RMK AO2 SLP315 T10561094 58011
KEVV 220754Z AUTO 00000KT 10SM CLR M05/M09 A3047 RMK AO2 SLP323 T10501094
KEVV 220654Z AUTO 00000KT 10SM CLR M03/M09 A3048 RMK AO2 SLP327 T10331089
KEVV 220554Z AUTO 00000KT 10SM CLR M02/M09 A3048 RMK AO2 SLP326 T10171089 10000 21050 400281072 58020
KEVV 220454Z AUTO 00000KT 10SM CLR M04/M10 A3050 RMK AO2 SLP335 T10391100
KEVV 220354Z 00000KT 10SM CLR M04/M11 A3053 RMK AO2 SLP344 T10391111
KEVV 220254Z 00000KT 10SM CLR M03/M11 A3054 RMK AO2 SLP348 T10281106 57006
KEVV 220154Z 00000KT 10SM CLR M03/M11 A3054 RMK AO2 SLP349 T10281111
KEVV 220054Z 00000KT 10SM CLR M01/M12 A3056 RMK AO2 SLP354 T10061122
KEVV 212354Z 21005KT 10SM CLR M01/M11 A3056 RMK AO2 SLP355 T10061106 10028 21006 57016
KEVV 212254Z 22008KT 10SM CLR 02/M11 A3058 RMK AO2 SLP361 T00171106
KEVV 212154Z 20006KT 10SM CLR 02/M11 A3059 RMK AO2 SLP364 T00221106
KEVV 212054Z VRB03KT 10SM CLR 03/M11 A3061 RMK AO2 SLP371 T00281106 56027
KEVV 211954Z VRB04KT 10SM CLR 02/M12 A3062 RMK AO2 SLP375 T00171122
KEVV 211854Z 23005KT 10SM CLR 01/M12 A3065 RMK AO2 SLP386 T00111117
KEVV 211754Z VRB05KT 10SM CLR 00/M12 A3069 RMK AO2 SLP398 T00001122 10000 21072 58012
KEVV 211654Z VRB04KT 10SM CLR M02/M11 A3072 RMK AO2 SLP408 T10171111
KEVV 211554Z 00000KT 10SM CLR M03/M12 A3072 RMK AO2 SLP410 T10281117
KEVV 211454Z 04003KT 10SM CLR M03/M11 A3073 RMK AO2 SLP411 T10331111 51011
KEVV 211354Z 02004KT 10SM CLR M05/M11 A3072 RMK AO2 SLP409 T10501111
KEVV 211254Z 35003KT 10SM CLR M07/M12 A3071 RMK AO2 SLP404 T10721117
KEVV 211154Z 36006KT 10SM CLR M07/M12 A3069 RMK AO2 SLP400 T10721117 11044 21072 53006
KEVV 211054Z AUTO 35005KT 10SM CLR M07/M12 A3069 RMK AO2 SLP397 T10671117
KEVV 210954Z AUTO 35005KT 10SM CLR M07/M11 A3067 RMK AO2 SLP391 T10671111
KEVV 210854Z AUTO 34005KT 10SM CLR M06/M11 A3068 RMK AO2 SLP394 T10611111 58001
KEVV 210754Z AUTO 35006KT 10SM CLR M06/M11 A3068 RMK AO2 SLP395 T10561111
KEVV 210654Z AUTO 35005KT 10SM CLR M05/M11 A3068 RMK AO2 SLP395 T10501106
KEVV 210554Z AUTO 35007KT 10SM CLR M04/M10 A3068 RMK AO2 SLP394 T10441100 11006 21044 400331044 50008
KEVV 210454Z AUTO 35006KT 10SM CLR M04/M11 A3068 RMK AO2 SLP395 T10441106
KEVV 210354Z 35010KT 10SM CLR M03/M11 A3067 RMK AO2 SLP391 T10331106
KEVV 210254Z 34009KT 10SM CLR M03/M11 A3066 RMK AO2 SLP387 T10331111 51018